EBBR/BRU METAR and TAF weather

Enter ICAO airport designator
Station Type Date Time Source
EBBR METAR 2018/11/15 05:50 UTC NOAA

EBBR 150550Z 13003KT CAVOK 03/03 Q1024 NOSIG


Station Type Date Time Source
EBBR Decoded METAR 2018/11/15 05:50 UTC NOAA

Bruxelles National, Belgium (EBBR) 50-54N 004-32E 58M
Nov 15, 2018 - 12:50 AM EST / 2018.11.15 0550 UTC
Wind: from the SE (130 degrees) at 3 MPH (3 KT):0
Visibility: greater than 7 mile(s):0
Temperature: 37 F (3 C)
Dew Point: 37 F (3 C)
Relative Humidity: 100%
Pressure (altimeter): 30.24 in. Hg (1024 hPa)
ob: EBBR 150550Z 13003KT CAVOK 03/03 Q1024 NOSIG
cycle: 6

Station Type Date Time Source
EBBR TAF 2018/11/15 06:49 UTC NOAA

TAF COR EBBR 150541Z 1506/1612 14004KT 8000 NSC
TEMPO 1507/1509 3000 MIFG BR PROB30
TEMPO 1507/1509 0800 BCFG
TEMPO 1521/1609 3000 MIFG BR PROB40
TEMPO 1601/1609 0800 BCFG


Example: see airport list